Time;durP1;ratioP1;P1;durP2;ratioP2;P2;SDS_P1;SDS_P2;PMS_P1;PMS_P2;Temp;Humidity;BMP_temperature;BMP_pressure;BME280_temperature;BME280_humidity;BME280_pressure;Samples;Min_cycle;Max_cycle;Signal;HPM_P1;HPM_P2
2022/04/13 00:01:47;;;;;;;;;;;;;;;;;;5095979;28;19996;-73
2022/04/13 00:04:13;;;;;;;;;;;;;;;;;;5100208;28;19978;-73
2022/04/13 00:06:39;;;;;;;;;;;;;;;;;;5101561;28;19985;-72
2022/04/13 00:09:06;;;;;;;;;;;;;;;;;;5101192;28;20000;-71
2022/04/13 00:11:32;;;;;;;;;;;;;;;;;;5097736;28;19975;-72
2022/04/13 00:13:58;;;;;;;;;;;;;;;;;;5097147;28;19982;-71
2022/04/13 00:16:24;;;;;;;;;;;;;;;;;;5098216;28;19978;-72
2022/04/13 00:18:50;;;;;;;;;;;;;;;;;;5099239;28;20013;-73
2022/04/13 00:21:16;;;;;;;;;;;;;;;;;;5102487;28;20019;-72
2022/04/13 00:23:42;;;;;;;;;;;;;;;;;;5101188;28;20303;-72
2022/04/13 00:26:08;;;;;;;;;;;;;;;;;;5101533;28;19978;-72
2022/04/13 00:28:34;;;;;;;;;;;;;;;;;;5102550;28;20006;-72
2022/04/13 00:31:01;;;;;;;;;;;;;;;;;;5101473;28;19978;-73
2022/04/13 00:33:27;;;;;;;;;;;;;;;;;;5103053;28;19979;-73
2022/04/13 00:35:53;;;;;;;;;;;;;;;;;;5099829;28;19974;-73
2022/04/13 00:38:21;;;;;;;;;;;;;;;;;;5093966;28;19991;-74
2022/04/13 00:40:47;;;;;;;;;;;;;;;;;;5095747;28;20345;-74
2022/04/13 00:43:13;;;;;;;;;;;;;;;;;;5094089;28;20512;-74
2022/04/13 00:45:39;;;;;;;;;;;;;;;;;;5091581;28;19986;-74
2022/04/13 00:48:06;;;;;;;;;;;;;;;;;;5096098;28;20016;-74
2022/04/13 00:50:32;;;;;;;;;;;;;;;;;;5092646;28;19974;-72
2022/04/13 00:52:59;;;;;;;;;;;;;;;;;;5091742;28;20001;-73
2022/04/13 00:55:25;;;;;;;;;;;;;;;;;;5094066;28;19981;-72
2022/04/13 00:57:51;;;;;;;;;;;;;;;;;;5092435;28;20049;-72
2022/04/13 01:00:18;;;;;;;;;;;;;;;;;;5093833;28;20425;-72
2022/04/13 01:02:45;;;;;;;;;;;;;;;;;;5101001;28;19995;-74
2022/04/13 01:05:11;;;;;;;;;;;;;;;;;;5100647;28;20341;-71
2022/04/13 01:07:37;;;;;;;;;;;;;;;;;;5096986;28;20001;-72
2022/04/13 01:10:05;;;;;;;;;;;;;;;;;;5098072;28;19946;-73
2022/04/13 01:12:31;;;;;;;;;;;;;;;;;;5095522;28;19985;-73
2022/04/13 01:14:58;;;;;;;;;;;;;;;;;;5098321;28;19974;-73
2022/04/13 01:17:24;;;;;;;;;;;;;;;;;;5096805;28;19986;-72
2022/04/13 01:19:50;;;;;;;;;;;;;;;;;;5097381;28;20095;-73
2022/04/13 01:22:16;;;;;;;;;;;;;;;;;;5097136;28;19996;-73
2022/04/13 01:24:42;;;;;;;;;;;;;;;;;;5093904;28;20080;-74
2022/04/13 01:27:09;;;;;;;;;;;;;;;;;;5093094;28;19985;-73
2022/04/13 01:29:35;;;;;;;;;;;;;;;;;;5091274;28;19993;-74
2022/04/13 01:32:01;;;;;;;;;;;;;;;;;;5089925;28;20013;-75
2022/04/13 01:34:27;;;;;;;;;;;;;;;;;;5104063;28;19939;-75
2022/04/13 01:36:53;;;;;;;;;;;;;;;;;;5092277;28;19995;-75
2022/04/13 01:39:20;;;;;;;;;;;;;;;;;;5092573;28;19990;-76
2022/04/13 01:41:46;;;;;;;;;;;;;;;;;;5091107;28;20021;-76
2022/04/13 01:44:15;;;;;;;;;;;;;;;;;;5099470;28;19974;-74
2022/04/13 01:46:41;;;;;;;;;;;;;;;;;;5101186;28;19993;-76
2022/04/13 01:49:07;;;;;;;;;;;;;;;;;;5100009;28;20089;-76
2022/04/13 01:51:33;;;;;;;;;;;;;;;;;;5108783;28;19980;-75
2022/04/13 01:53:59;;;;;;;;;;;;;;;;;;5101219;28;19980;-76
2022/04/13 01:56:25;;;;;;;;;;;;;;;;;;5101124;28;20834;-75
2022/04/13 01:58:51;;;;;;;;;;;;;;;;;;5102233;28;19976;-75
2022/04/13 02:01:17;;;;;;;;;;;;;;;;;;5098106;28;19964;-75
2022/04/13 02:03:44;;;;;;;;;;;;;;;;;;5102135;28;19988;-74
2022/04/13 02:06:10;;;;;;;;;;;;;;;;;;5105186;28;19982;-75
2022/04/13 02:08:37;;;;;;;;;;;;;;;;;;5104707;28;19991;-75
2022/04/13 02:11:03;;;;;;;;;;;;;;;;;;5102795;28;19979;-74
2022/04/13 02:13:29;;;;;;;;;;;;;;;;;;5104078;28;19989;-75
2022/04/13 02:15:55;;;;;;;;;;;;;;;;;;5098776;28;19978;-74
2022/04/13 02:18:21;;;;;;;;;;;;;;;;;;5112881;22;20004;-76
2022/04/13 02:20:47;;;;;;;;;;;;;;;;;;5077781;28;19982;-77
2022/04/13 02:23:13;;;;;;;;;;;;;;;;;;5082811;28;19998;-76
2022/04/13 02:25:40;;;;;;;;;;;;;;;;;;5086410;28;19994;-78
2022/04/13 02:28:06;;;;;;;;;;;;;;;;;;5083246;28;19975;-77
2022/04/13 02:30:32;;;;;;;;;;;;;;;;;;5069930;28;20377;-77
2022/04/13 02:32:58;;;;;;;;;;;;;;;;;;5069120;28;20035;-76
2022/04/13 02:35:25;;;;;;;;;;;;;;;;;;5071636;28;20026;-77
2022/04/13 02:37:51;;;;;;;;;;;;;;;;;;5074150;28;19978;-78
2022/04/13 02:40:17;;;;;;;;;;;;;;;;;;5061059;28;19986;-78
2022/04/13 02:42:43;;;;;;;;;;;;;;;;;;5074139;28;19988;-78
2022/04/13 02:45:09;;;;;;;;;;;;;;;;;;5074707;28;19975;-77
2022/04/13 02:47:35;;;;;;;;;;;;;;;;;;5063341;28;20247;-77
2022/04/13 02:50:01;;;;;;;;;;;;;;;;;;5070008;28;19999;-77
2022/04/13 02:52:28;;;;;;;;;;;;;;;;;;5070254;28;19960;-77
2022/04/13 02:54:54;;;;;;;;;;;;;;;;;;5081006;28;19985;-77
2022/04/13 02:57:21;;;;;;;;;;;;;;;;;;5072622;28;19979;-77
2022/04/13 02:59:48;;;;;;;;;;;;;;;;;;5075278;28;19998;-77
2022/04/13 03:02:15;;;;;;;;;;;;;;;;;;5061805;28;20002;-77
2022/04/13 03:04:42;;;;;;;;;;;;;;;;;;5083809;28;20412;-77
2022/04/13 03:07:08;;;;;;;;;;;;;;;;;;5073250;28;20357;-77
2022/04/13 03:09:34;;;;;;;;;;;;;;;;;;5083823;28;20529;-76
2022/04/13 03:12:01;;;;;;;;;;;;;;;;;;5083039;28;20348;-80
2022/04/13 03:14:27;;;;;;;;;;;;;;;;;;5097317;28;20413;-77
2022/04/13 03:16:53;;;;;;;;;;;;;;;;;;5091200;28;19986;-78
2022/04/13 03:19:19;;;;;;;;;;;;;;;;;;5086012;28;20006;-78
2022/04/13 03:21:50;;;;;;;;;;;;;;;;;;5089633;28;20228;-78
2022/04/13 03:24:16;;;;;;;;;;;;;;;;;;5089980;28;20001;-78
2022/04/13 03:26:42;;;;;;;;;;;;;;;;;;5075614;28;19985;-78
2022/04/13 03:29:09;;;;;;;;;;;;;;;;;;5087119;28;19991;-78
2022/04/13 03:31:35;;;;;;;;;;;;;;;;;;5087464;28;20002;-78
2022/04/13 03:34:01;;;;;;;;;;;;;;;;;;5084144;28;19990;-78
2022/04/13 03:36:27;;;;;;;;;;;;;;;;;;5084578;28;19975;-78
2022/04/13 03:38:53;;;;;;;;;;;;;;;;;;5087336;28;20000;-78
2022/04/13 03:41:20;;;;;;;;;;;;;;;;;;5061389;28;19972;-77
2022/04/13 03:43:46;;;;;;;;;;;;;;;;;;5070201;28;19987;-77
2022/04/13 03:46:12;;;;;;;;;;;;;;;;;;5072721;28;19984;-77
2022/04/13 03:48:38;;;;;;;;;;;;;;;;;;5062708;28;20006;-77
2022/04/13 03:51:04;;;;;;;;;;;;;;;;;;5058541;28;19999;-77
2022/04/13 03:53:30;;;;;;;;;;;;;;;;;;5065650;28;19975;-75
2022/04/13 03:55:56;;;;;;;;;;;;;;;;;;5073030;28;19978;-75
2022/04/13 03:58:23;;;;;;;;;;;;;;;;;;5078498;28;19984;-76
2022/04/13 04:00:49;;;;;;;;;;;;;;;;;;5073124;28;19981;-76
2022/04/13 04:03:15;;;;;;;;;;;;;;;;;;5079567;28;20013;-77
2022/04/13 04:05:41;;;;;;;;;;;;;;;;;;5077946;28;19975;-75
2022/04/13 04:08:07;;;;;;;;;;;;;;;;;;5074517;28;20381;-76
2022/04/13 04:10:33;;;;;;;;;;;;;;;;;;5064762;28;19994;-76
2022/04/13 04:12:59;;;;;;;;;;;;;;;;;;5077061;28;19975;-74
2022/04/13 04:15:25;;;;;;;;;;;;;;;;;;5053252;28;19980;-76
2022/04/13 04:17:52;;;;;;;;;;;;;;;;;;5071756;28;19975;-76
2022/04/13 04:20:18;;;;;;;;;;;;;;;;;;5071286;28;20002;-76
2022/04/13 04:22:44;;;;;;;;;;;;;;;;;;5072181;28;19999;-75
2022/04/13 04:25:10;;;;;;;;;;;;;;;;;;5072805;28;19974;-75
2022/04/13 04:27:36;;;;;;;;;;;;;;;;;;5069225;28;20187;-75
2022/04/13 04:30:02;;;;;;;;;;;;;;;;;;5090736;28;20143;-79
2022/04/13 04:32:28;;;;;;;;;;;;;;;;;;5082964;28;19976;-75
2022/04/13 04:34:54;;;;;;;;;;;;;;;;;;5082224;28;19980;-75
2022/04/13 04:37:21;;;;;;;;;;;;;;;;;;5095019;28;19987;-75
2022/04/13 04:39:47;;;;;;;;;;;;;;;;;;5089366;28;19995;-77
2022/04/13 04:42:13;;;;;;;;;;;;;;;;;;5092496;28;20042;-75
2022/04/13 04:44:39;;;;;;;;;;;;;;;;;;5090819;28;20003;-75
2022/04/13 04:47:05;;;;;;;;;;;;;;;;;;5075015;28;19978;-78
2022/04/13 04:49:31;;;;;;;;;;;;;;;;;;5069620;28;19992;-75
2022/04/13 04:51:58;;;;;;;;;;;;;;;;;;5064258;28;19979;-76
2022/04/13 04:54:24;;;;;;;;;;;;;;;;;;5076094;28;19975;-76
2022/04/13 04:56:50;;;;;;;;;;;;;;;;;;5081701;28;19982;-75
2022/04/13 04:59:16;;;;;;;;;;;;;;;;;;5085039;28;20084;-77
2022/04/13 05:01:42;;;;;;;;;;;;;;;;;;5090765;28;19975;-76
2022/04/13 05:04:08;;;;;;;;;;;;;;;;;;4377674;28;10000716;-78
2022/04/13 05:06:34;;;;;;;;;;;;;;;;;;5076712;28;20199;-74
2022/04/13 05:09:01;;;;;;;;;;;;;;;;;;5072119;28;19995;-75
2022/04/13 05:11:27;;;;;;;;;;;;;;;;;;5066335;28;19979;-75
2022/04/13 05:13:53;;;;;;;;;;;;;;;;;;5067250;28;19976;-75
2022/04/13 05:16:19;;;;;;;;;;;;;;;;;;5071908;28;19986;-76
2022/04/13 05:18:46;;;;;;;;;;;;;;;;;;5068319;28;20895;-76
2022/04/13 05:21:12;;;;;;;;;;;;;;;;;;5073014;28;20058;-76
2022/04/13 05:23:41;;;;;;;;;;;;;;;;;;5066531;28;19998;-77
2022/04/13 05:26:07;;;;;;;;;;;;;;;;;;5066578;28;20208;-77
2022/04/13 05:28:33;;;;;;;;;;;;;;;;;;5067861;28;20306;-75
2022/04/13 05:30:59;;;;;;;;;;;;;;;;;;5070060;28;20008;-74
2022/04/13 05:33:25;;;;;;;;;;;;;;;;;;5070739;28;19981;-75
2022/04/13 05:35:51;;;;;;;;;;;;;;;;;;5068885;28;19980;-77
2022/04/13 05:38:17;;;;;;;;;;;;;;;;;;5061287;28;20130;-77
2022/04/13 05:40:44;;;;;;;;;;;;;;;;;;5069673;28;20072;-76
2022/04/13 05:43:10;;;;;;;;;;;;;;;;;;5074946;28;20373;-76
2022/04/13 05:45:36;;;;;;;;;;;;;;;;;;5072099;28;19978;-76
2022/04/13 05:48:02;;;;;;;;;;;;;;;;;;5071834;28;20434;-76
2022/04/13 05:50:28;;;;;;;;;;;;;;;;;;5073993;28;19996;-76
2022/04/13 05:52:54;;;;;;;;;;;;;;;;;;5075145;28;20364;-76
2022/04/13 05:55:20;;;;;;;;;;;;;;;;;;5065902;28;19978;-77
2022/04/13 05:57:47;;;;;;;;;;;;;;;;;;5071790;28;19971;-76
2022/04/13 06:00:13;;;;;;;;;;;;;;;;;;5075678;28;20302;-76
2022/04/13 06:02:39;;;;;;;;;;;;;;;;;;5068292;28;19986;-76
2022/04/13 06:05:07;;;;;;;;;;;;;;;;;;5068166;28;20378;-77
2022/04/13 06:07:33;;;;;;;;;;;;;;;;;;5073027;28;20446;-75
2022/04/13 06:10:01;;;;;;;;;;;;;;;;;;5070396;28;20347;-76
2022/04/13 06:12:27;;;;;;;;;;;;;;;;;;5069767;28;19985;-77
2022/04/13 06:14:53;;;;;;;;;;;;;;;;;;5071307;28;20233;-76
2022/04/13 06:17:19;;;;;;;;;;;;;;;;;;5069523;28;19977;-76
2022/04/13 06:19:46;;;;;;;;;;;;;;;;;;5066516;28;19998;-74
2022/04/13 06:22:12;;;;;;;;;;;;;;;;;;5063450;28;19972;-77
2022/04/13 06:24:38;;;;;;;;;;;;;;;;;;5064354;28;19999;-78
2022/04/13 06:27:04;;;;;;;;;;;;;;;;;;5077889;28;19979;-77
2022/04/13 06:29:30;;;;;;;;;;;;;;;;;;5090166;28;19992;-76
2022/04/13 06:31:56;;;;;;;;;;;;;;;;;;5090856;28;19971;-77
2022/04/13 06:34:22;;;;;;;;;;;;;;;;;;5079796;28;20528;-76
2022/04/13 06:36:48;;;;;;;;;;;;;;;;;;5087688;28;20282;-77
2022/04/13 06:39:15;;;;;;;;;;;;;;;;;;5073738;28;19995;-77
2022/04/13 06:41:41;;;;;;;;;;;;;;;;;;5090952;28;20001;-76
2022/04/13 06:44:07;;;;;;;;;;;;;;;;;;5081329;28;19991;-76
2022/04/13 06:46:36;;;;;;;;;;;;;;;;;;5077900;28;20053;-74
2022/04/13 06:49:02;;;;;;;;;;;;;;;;;;5062833;28;20027;-76
2022/04/13 06:51:28;;;;;;;;;;;;;;;;;;5072471;28;19983;-73
2022/04/13 06:53:54;;;;;;;;;;;;;;;;;;5083892;28;19981;-75
2022/04/13 06:56:20;;;;;;;;;;;;;;;;;;4732271;28;9999939;-75
2022/04/13 06:58:48;;;;;;;;;;;;;;;;;;5080520;28;19940;-75
2022/04/13 07:01:14;;;;;;;;;;;;;;;;;;5081037;28;19974;-74
2022/04/13 07:03:40;;;;;;;;;;;;;;;;;;5075968;28;20025;-77
2022/04/13 07:06:07;;;;;;;;;;;;;;;;;;5071708;28;19975;-77
2022/04/13 07:08:33;;;;;;;;;;;;;;;;;;5062108;28;19978;-76
2022/04/13 07:10:59;;;;;;;;;;;;;;;;;;5076582;28;19979;-74
2022/04/13 07:13:25;;;;;;;;;;;;;;;;;;5079606;28;19976;-75
2022/04/13 07:15:52;;;;;;;;;;;;;;;;;;5078102;28;19981;-78
2022/04/13 07:18:18;;;;;;;;;;;;;;;;;;5075225;28;19982;-75
2022/04/13 07:20:45;;;;;;;;;;;;;;;;;;5077006;28;20053;-75
2022/04/13 07:23:11;;;;;;;;;;;;;;;;;;5072937;28;20444;-76
2022/04/13 07:25:37;;;;;;;;;;;;;;;;;;5063950;28;20355;-76
2022/04/13 07:28:03;;;;;;;;;;;;;;;;;;5061469;28;20020;-75
2022/04/13 07:30:29;;;;;;;;;;;;;;;;;;5074124;28;19990;-75
2022/04/13 07:32:58;;;;;;;;;;;;;;;;;;5070527;28;19975;-75
2022/04/13 07:35:24;;;;;;;;;;;;;;;;;;5055863;28;20198;-75
2022/04/13 07:37:51;;;;;;;;;;;;;;;;;;5062550;28;20448;-74
2022/04/13 07:40:17;;;;;;;;;;;;;;;;;;5072230;28;20385;-74
2022/04/13 07:42:43;;;;;;;;;;;;;;;;;;5072876;28;20617;-75
2022/04/13 07:45:09;;;;;;;;;;;;;;;;;;5069702;28;19980;-74
2022/04/13 07:47:36;;;;;;;;;;;;;;;;;;5065914;28;20461;-74
2022/04/13 07:50:02;;;;;;;;;;;;;;;;;;5063561;28;19929;-75
2022/04/13 07:52:28;;;;;;;;;;;;;;;;;;5067752;28;19952;-76
2022/04/13 07:54:54;;;;;;;;;;;;;;;;;;5066683;28;19970;-75
2022/04/13 07:57:20;;;;;;;;;;;;;;;;;;5069542;28;19967;-74
2022/04/13 07:59:46;;;;;;;;;;;;;;;;;;5066032;28;19992;-75
2022/04/13 08:02:13;;;;;;;;;;;;;;;;;;5067048;28;19949;-75
2022/04/13 08:04:39;;;;;;;;;;;;;;;;;;5076198;28;19965;-73
2022/04/13 08:07:05;;;;;;;;;;;;;;;;;;5073160;28;19953;-75
2022/04/13 08:09:33;;;;;;;;;;;;;;;;;;5070470;28;20465;-75
2022/04/13 08:11:59;;;;;;;;;;;;;;;;;;5066447;28;19946;-74
2022/04/13 08:14:25;;;;;;;;;;;;;;;;;;5059126;28;19940;-75
2022/04/13 08:16:52;;;;;;;;;;;;;;;;;;5069829;28;19947;-74
2022/04/13 08:19:18;;;;;;;;;;;;;;;;;;5067311;28;19963;-75
2022/04/13 08:21:44;;;;;;;;;;;;;;;;;;5087943;22;20686;-77
2022/04/13 08:24:10;;;;;;;;;;;;;;;;;;5068913;28;19928;-77
2022/04/13 08:26:36;;;;;;;;;;;;;;;;;;5081620;28;20020;-78
2022/04/13 08:29:02;;;;;;;;;;;;;;;;;;5069309;28;19935;-77
2022/04/13 08:31:28;;;;;;;;;;;;;;;;;;5064388;28;19970;-74
2022/04/13 08:33:55;;;;;;;;;;;;;;;;;;5046733;28;19966;-76
2022/04/13 08:36:21;;;;;;;;;;;;;;;;;;5059204;28;19968;-77
2022/04/13 08:38:47;;;;;;;;;;;;;;;;;;5056643;28;19969;-79
2022/04/13 08:41:13;;;;;;;;;;;;;;;;;;5055863;28;19974;-76
2022/04/13 08:43:39;;;;;;;;;;;;;;;;;;5051211;28;19968;-77
2022/04/13 08:46:07;;;;;;;;;;;;;;;;;;5054919;28;19928;-77
2022/04/13 08:48:33;;;;;;;;;;;;;;;;;;5046015;28;20396;-75
2022/04/13 08:50:59;;;;;;;;;;;;;;;;;;5053088;28;19950;-76
2022/04/13 08:53:25;;;;;;;;;;;;;;;;;;5052328;28;20316;-78
2022/04/13 08:55:51;;;;;;;;;;;;;;;;;;5055055;28;20242;-77
2022/04/13 08:58:19;;;;;;;;;;;;;;;;;;5057422;28;20746;-78
2022/04/13 09:00:45;;;;;;;;;;;;;;;;;;5057500;28;19936;-76
2022/04/13 09:03:11;;;;;;;;;;;;;;;;;;5055300;28;19948;-77
2022/04/13 09:05:37;;;;;;;;;;;;;;;;;;5060563;28;19931;-76
2022/04/13 09:08:05;;;;;;;;;;;;;;;;;;5051435;28;19940;-77
2022/04/13 09:10:31;;;;;;;;;;;;;;;;;;5058984;28;20026;-75
2022/04/13 09:12:58;;;;;;;;;;;;;;;;;;5046510;28;19937;-79
2022/04/13 09:15:24;;;;;;;;;;;;;;;;;;5058108;28;19940;-76
2022/04/13 09:17:50;;;;;;;;;;;;;;;;;;5061229;28;19925;-78
2022/04/13 09:20:16;;;;;;;;;;;;;;;;;;5058482;28;19931;-74
2022/04/13 09:22:42;;;;;;;;;;;;;;;;;;5055400;28;20034;-78
2022/04/13 09:25:08;;;;;;;;;;;;;;;;;;5054088;28;19929;-76
2022/04/13 09:27:34;;;;;;;;;;;;;;;;;;5050879;28;19928;-77
2022/04/13 09:30:01;;;;;;;;;;;;;;;;;;5055011;28;20588;-77
2022/04/13 09:32:27;;;;;;;;;;;;;;;;;;5053941;28;19998;-77
2022/04/13 09:34:53;;;;;;;;;;;;;;;;;;5050878;28;19932;-77
2022/04/13 09:37:19;;;;;;;;;;;;;;;;;;5053895;28;20396;-77
2022/04/13 09:39:45;;;;;;;;;;;;;;;;;;5054170;28;20641;-76
2022/04/13 09:42:11;;;;;;;;;;;;;;;;;;5052830;28;19925;-76
2022/04/13 09:44:37;;;;;;;;;;;;;;;;;;5047507;28;19929;-78
2022/04/13 09:47:04;;;;;;;;;;;;;;;;;;5050341;28;19940;-78
2022/04/13 09:49:30;;;;;;;;;;;;;;;;;;5055795;28;19924;-77
2022/04/13 09:51:56;;;;;;;;;;;;;;;;;;5055882;28;19924;-76
2022/04/13 09:54:22;;;;;;;;;;;;;;;;;;5053726;28;19935;-77
2022/04/13 09:56:48;;;;;;;;;;;;;;;;;;5056254;28;19925;-76
2022/04/13 09:59:14;;;;;;;;;;;;;;;;;;5053355;28;20319;-77
2022/04/13 10:01:40;;;;;;;;;;;;;;;;;;5052833;28;19924;-77
2022/04/13 10:04:07;;;;;;;;;;;;;;;;;;5052231;28;20020;-78
2022/04/13 10:06:33;;;;;;;;;;;;;;;;;;5056444;28;20000;-77
2022/04/13 10:09:00;;;;;;;;;;;;;;;;;;5053583;28;19932;-76
2022/04/13 10:11:26;;;;;;;;;;;;;;;;;;5042456;28;19990;-77
2022/04/13 10:13:52;;;;;;;;;;;;;;;;;;5054720;28;19935;-79
2022/04/13 10:16:18;;;;;;;;;;;;;;;;;;5047182;28;19929;-78
2022/04/13 10:18:45;;;;;;;;;;;;;;;;;;5055923;28;19932;-78
2022/04/13 10:21:11;;;;;;;;;;;;;;;;;;5055225;28;19936;-78
2022/04/13 10:23:37;;;;;;;;;;;;;;;;;;5058642;28;19944;-76
2022/04/13 10:26:03;;;;;;;;;;;;;;;;;;4707898;28;9999883;-77
2022/04/13 10:28:29;;;;;;;;;;;;;;;;;;5049653;28;20035;-78
2022/04/13 10:30:55;;;;;;;;;;;;;;;;;;5054172;28;19955;-77
2022/04/13 10:33:21;;;;;;;;;;;;;;;;;;5049328;28;19932;-78
2022/04/13 10:35:48;;;;;;;;;;;;;;;;;;5053762;28;19940;-77
2022/04/13 10:38:14;;;;;;;;;;;;;;;;;;5062332;28;19924;-78
2022/04/13 10:40:40;;;;;;;;;;;;;;;;;;5061625;28;19932;-77
2022/04/13 10:43:06;;;;;;;;;;;;;;;;;;5058039;28;19933;-77
2022/04/13 10:45:35;;;;;;;;;;;;;;;;;;5068146;28;19928;-80
2022/04/13 10:48:01;;;;;;;;;;;;;;;;;;5067937;28;19928;-77
2022/04/13 10:50:30;;;;;;;;;;;;;;;;;;5068715;28;19928;-78
2022/04/13 10:52:56;;;;;;;;;;;;;;;;;;5069101;28;19935;-77
2022/04/13 10:55:22;;;;;;;;;;;;;;;;;;5070772;28;20481;-78
2022/04/13 10:57:48;;;;;;;;;;;;;;;;;;5063048;28;19932;-78
2022/04/13 11:00:15;;;;;;;;;;;;;;;;;;5068082;28;19992;-76
2022/04/13 11:02:41;;;;;;;;;;;;;;;;;;5061297;28;20363;-79
2022/04/13 11:05:07;;;;;;;;;;;;;;;;;;5080658;28;19953;-75
2022/04/13 11:07:33;;;;;;;;;;;;;;;;;;5076581;28;19928;-79
2022/04/13 11:10:00;;;;;;;;;;;;;;;;;;5063327;28;19929;-78
2022/04/13 11:12:26;;;;;;;;;;;;;;;;;;5060355;28;20515;-78
2022/04/13 11:14:53;;;;;;;;;;;;;;;;;;5065361;28;19993;-75
2022/04/13 11:17:19;;;;;;;;;;;;;;;;;;5058623;28;19951;-76
2022/04/13 11:19:45;;;;;;;;;;;;;;;;;;5055606;28;20410;-78
2022/04/13 11:22:14;;;;;;;;;;;;;;;;;;5064202;28;19929;-78
2022/04/13 11:24:40;;;;;;;;;;;;;;;;;;5057758;28;19995;-77
2022/04/13 11:27:06;;;;;;;;;;;;;;;;;;5067654;28;19929;-78
2022/04/13 11:29:32;;;;;;;;;;;;;;;;;;5074258;28;19935;-77
2022/04/13 11:31:58;;;;;;;;;;;;;;;;;;5078319;28;19963;-77
2022/04/13 11:34:24;;;;;;;;;;;;;;;;;;5100087;28;19913;-76
2022/04/13 11:36:50;;;;;;;;;;;;;;;;;;5100529;28;19924;-77
2022/04/13 11:39:17;;;;;;;;;;;;;;;;;;5100554;28;19976;-77
2022/04/13 11:41:43;;;;;;;;;;;;;;;;;;5082184;28;19913;-77
2022/04/13 11:44:09;;;;;;;;;;;;;;;;;;5080975;28;20245;-76
2022/04/13 11:46:35;;;;;;;;;;;;;;;;;;5080053;28;19984;-78
2022/04/13 11:49:02;;;;;;;;;;;;;;;;;;5081059;28;19921;-76
2022/04/13 11:51:29;;;;;;;;;;;;;;;;;;5080306;28;19988;-76
2022/04/13 11:53:55;;;;;;;;;;;;;;;;;;5081107;28;19944;-77
2022/04/13 11:56:22;;;;;;;;;;;;;;;;;;5088540;28;19913;-78
2022/04/13 11:58:48;;;;;;;;;;;;;;;;;;5101208;28;19984;-76
2022/04/13 12:01:14;;;;;;;;;;;;;;;;;;5100165;28;19951;-77
2022/04/13 12:03:40;;;;;;;;;;;;;;;;;;5098444;28;19924;-78
2022/04/13 12:06:07;;;;;;;;;;;;;;;;;;5082835;28;19912;-77
2022/04/13 12:08:35;;;;;;;;;;;;;;;;;;5080722;28;19968;-77
2022/04/13 12:11:01;;;;;;;;;;;;;;;;;;5076551;28;20216;-77
2022/04/13 12:13:27;;;;;;;;;;;;;;;;;;5075160;28;20507;-78
2022/04/13 12:15:53;;;;;;;;;;;;;;;;;;5057637;28;19935;-76
2022/04/13 12:18:19;;;;;;;;;;;;;;;;;;5070968;28;19925;-77
2022/04/13 12:20:47;;;;;;;;;;;;;;;;;;5077054;28;19920;-76
2022/04/13 12:23:13;;;;;;;;;;;;;;;;;;5076512;28;19967;-76
2022/04/13 12:25:39;;;;;;;;;;;;;;;;;;4725328;28;10000612;-77
2022/04/13 12:28:05;;;;;;;;;;;;;;;;;;5084871;28;19923;-78
2022/04/13 12:30:31;;;;;;;;;;;;;;;;;;5073800;28;19929;-78
2022/04/13 12:32:57;;;;;;;;;;;;;;;;;;5081661;28;19925;-78
2022/04/13 12:35:24;;;;;;;;;;;;;;;;;;5070685;28;19925;-77
2022/04/13 12:37:50;;;;;;;;;;;;;;;;;;5064091;28;19929;-77
2022/04/13 12:40:16;;;;;;;;;;;;;;;;;;5061448;28;19928;-76
2022/04/13 12:42:42;;;;;;;;;;;;;;;;;;5063026;28;19935;-78
2022/04/13 12:45:08;;;;;;;;;;;;;;;;;;5054029;28;19925;-75
2022/04/13 12:47:35;;;;;;;;;;;;;;;;;;5055756;28;19929;-77
2022/04/13 12:50:02;;;;;;;;;;;;;;;;;;5049978;28;19951;-76
2022/04/13 12:52:28;;;;;;;;;;;;;;;;;;5060741;28;19935;-76
2022/04/13 12:54:54;;;;;;;;;;;;;;;;;;5058364;28;19938;-77
2022/04/13 12:57:20;;;;;;;;;;;;;;;;;;5050326;28;19935;-76
2022/04/13 12:59:46;;;;;;;;;;;;;;;;;;5061627;28;19928;-75
2022/04/13 13:02:14;;;;;;;;;;;;;;;;;;5058712;28;19929;-77
2022/04/13 13:04:40;;;;;;;;;;;;;;;;;;5060166;28;19928;-77
2022/04/13 13:07:07;;;;;;;;;;;;;;;;;;5051894;28;19959;-76
2022/04/13 13:09:33;;;;;;;;;;;;;;;;;;5052249;28;20022;-75
2022/04/13 13:11:59;;;;;;;;;;;;;;;;;;5057595;28;19940;-79
2022/04/13 13:14:25;;;;;;;;;;;;;;;;;;5057867;28;20366;-76
2022/04/13 13:16:51;;;;;;;;;;;;;;;;;;5052655;28;20608;-79
2022/04/13 13:19:17;;;;;;;;;;;;;;;;;;5055344;28;20399;-78
2022/04/13 13:21:43;;;;;;;;;;;;;;;;;;5053316;28;20533;-75
2022/04/13 13:24:10;;;;;;;;;;;;;;;;;;5058738;28;19964;-74
2022/04/13 13:26:36;;;;;;;;;;;;;;;;;;5043010;28;19979;-80
2022/04/13 13:29:02;;;;;;;;;;;;;;;;;;5045957;28;19928;-76
2022/04/13 13:31:28;;;;;;;;;;;;;;;;;;5050964;28;20560;-73
2022/04/13 13:33:54;;;;;;;;;;;;;;;;;;5034326;28;20018;-76
2022/04/13 13:36:21;;;;;;;;;;;;;;;;;;5045565;28;19932;-76
2022/04/13 13:38:47;;;;;;;;;;;;;;;;;;5050630;28;19936;-77
2022/04/13 13:41:13;;;;;;;;;;;;;;;;;;5049412;28;19955;-79
2022/04/13 13:43:41;;;;;;;;;;;;;;;;;;5044779;28;19929;-75
2022/04/13 13:46:07;;;;;;;;;;;;;;;;;;5047923;28;19928;-75
2022/04/13 13:48:34;;;;;;;;;;;;;;;;;;5051734;28;19929;-75
2022/04/13 13:51:01;;;;;;;;;;;;;;;;;;5043086;28;19942;-77
2022/04/13 13:53:27;;;;;;;;;;;;;;;;;;5041118;28;19939;-77
2022/04/13 13:55:53;;;;;;;;;;;;;;;;;;5050128;28;19928;-78
2022/04/13 13:58:19;;;;;;;;;;;;;;;;;;5056071;28;19929;-78
2022/04/13 14:00:45;;;;;;;;;;;;;;;;;;5065948;28;19992;-78
2022/04/13 14:03:11;;;;;;;;;;;;;;;;;;5047001;28;19929;-77
2022/04/13 14:05:38;;;;;;;;;;;;;;;;;;5045790;28;19983;-77
2022/04/13 14:08:05;;;;;;;;;;;;;;;;;;5036428;28;19944;-76
2022/04/13 14:10:33;;;;;;;;;;;;;;;;;;5043718;28;20479;-77
2022/04/13 14:12:59;;;;;;;;;;;;;;;;;;5043415;28;19968;-76
2022/04/13 14:15:25;;;;;;;;;;;;;;;;;;5044214;28;19938;-77
2022/04/13 14:17:51;;;;;;;;;;;;;;;;;;5052431;28;19935;-76
2022/04/13 14:20:17;;;;;;;;;;;;;;;;;;5044291;28;19938;-77
2022/04/13 14:22:43;;;;;;;;;;;;;;;;;;5103309;22;19928;-77
2022/04/13 14:25:09;;;;;;;;;;;;;;;;;;5076768;28;19925;-75
2022/04/13 14:27:36;;;;;;;;;;;;;;;;;;5078856;28;20035;-76
2022/04/13 14:30:02;;;;;;;;;;;;;;;;;;5072096;28;19944;-77
2022/04/13 14:32:28;;;;;;;;;;;;;;;;;;5058837;28;19958;-77
2022/04/13 14:34:54;;;;;;;;;;;;;;;;;;5053462;28;19936;-76
2022/04/13 14:37:20;;;;;;;;;;;;;;;;;;5058531;28;20396;-77
2022/04/13 14:39:46;;;;;;;;;;;;;;;;;;5054195;28;19928;-76
2022/04/13 14:42:13;;;;;;;;;;;;;;;;;;5048668;28;19941;-76
2022/04/13 14:44:40;;;;;;;;;;;;;;;;;;5050375;28;19940;-76
2022/04/13 14:47:06;;;;;;;;;;;;;;;;;;5048500;28;19951;-77
2022/04/13 14:49:32;;;;;;;;;;;;;;;;;;5049085;28;19925;-76
2022/04/13 14:51:58;;;;;;;;;;;;;;;;;;5048445;28;20137;-77
2022/04/13 14:54:24;;;;;;;;;;;;;;;;;;5048069;28;19936;-76
2022/04/13 14:56:51;;;;;;;;;;;;;;;;;;5047367;28;19936;-75
2022/04/13 14:59:17;;;;;;;;;;;;;;;;;;5050263;28;19925;-75
2022/04/13 15:01:43;;;;;;;;;;;;;;;;;;5045287;28;19928;-76
2022/04/13 15:04:09;;;;;;;;;;;;;;;;;;5047947;28;19936;-78
2022/04/13 15:06:35;;;;;;;;;;;;;;;;;;5041209;28;20008;-77
2022/04/13 15:09:03;;;;;;;;;;;;;;;;;;5041675;28;19959;-76
2022/04/13 15:11:29;;;;;;;;;;;;;;;;;;5041597;28;20430;-74
2022/04/13 15:13:55;;;;;;;;;;;;;;;;;;5046891;28;19929;-76
2022/04/13 15:16:24;;;;;;;;;;;;;;;;;;5043163;28;19935;-76
2022/04/13 15:18:50;;;;;;;;;;;;;;;;;;5043024;28;19928;-77
2022/04/13 15:21:16;;;;;;;;;;;;;;;;;;5041302;28;19932;-77
2022/04/13 15:23:42;;;;;;;;;;;;;;;;;;5044707;28;19924;-75
2022/04/13 15:26:08;;;;;;;;;;;;;;;;;;5044075;28;20557;-76
2022/04/13 15:28:35;;;;;;;;;;;;;;;;;;5039984;28;20296;-75
2022/04/13 15:31:01;;;;;;;;;;;;;;;;;;5042424;28;20794;-76
2022/04/13 15:33:27;;;;;;;;;;;;;;;;;;5044965;28;20024;-76
2022/04/13 15:35:53;;;;;;;;;;;;;;;;;;5046529;28;19935;-74
2022/04/13 15:38:19;;;;;;;;;;;;;;;;;;5036393;28;19924;-76
2022/04/13 15:40:45;;;;;;;;;;;;;;;;;;5044181;28;19925;-75
2022/04/13 15:43:11;;;;;;;;;;;;;;;;;;5043694;28;19929;-76
2022/04/13 15:45:38;;;;;;;;;;;;;;;;;;5044658;28;19936;-76
2022/04/13 15:48:04;;;;;;;;;;;;;;;;;;5041259;28;19924;-75
2022/04/13 15:50:30;;;;;;;;;;;;;;;;;;5047391;28;19964;-76
2022/04/13 15:52:56;;;;;;;;;;;;;;;;;;5049013;28;19929;-76
2022/04/13 15:55:23;;;;;;;;;;;;;;;;;;5049587;28;19932;-77
2022/04/13 15:57:50;;;;;;;;;;;;;;;;;;5050516;28;19932;-77
2022/04/13 16:00:16;;;;;;;;;;;;;;;;;;5048202;28;20412;-75
2022/04/13 16:02:46;;;;;;;;;;;;;;;;;;5050988;28;19944;-77
2022/04/13 16:05:18;;;;;;;;;;;;;;;;;;5050895;28;19929;-76
2022/04/13 16:07:46;;;;;;;;;;;;;;;;;;5053650;28;19928;-75
2022/04/13 16:10:12;;;;;;;;;;;;;;;;;;5052949;28;19933;-76
2022/04/13 16:12:39;;;;;;;;;;;;;;;;;;5050666;28;19933;-75
2022/04/13 16:15:05;;;;;;;;;;;;;;;;;;5048645;28;19928;-75
2022/04/13 16:17:31;;;;;;;;;;;;;;;;;;5040246;28;20023;-76
2022/04/13 16:19:58;;;;;;;;;;;;;;;;;;5051571;28;19933;-76
2022/04/13 16:22:24;;;;;;;;;;;;;;;;;;5047825;28;20022;-77
2022/04/13 16:24:50;;;;;;;;;;;;;;;;;;5046466;28;19929;-76
2022/04/13 16:27:18;;;;;;;;;;;;;;;;;;5048347;28;19925;-78
2022/04/13 16:29:44;;;;;;;;;;;;;;;;;;5046170;28;19928;-76
2022/04/13 16:32:10;;;;;;;;;;;;;;;;;;5041070;28;19932;-76
2022/04/13 16:34:36;;;;;;;;;;;;;;;;;;5044611;28;19936;-77
2022/04/13 16:37:02;;;;;;;;;;;;;;;;;;5042121;28;19944;-79
2022/04/13 16:39:28;;;;;;;;;;;;;;;;;;5055881;28;19975;-77